Time;durP1;ratioP1;P1;durP2;ratioP2;P2;SDS_P1;SDS_P2;PMS_P1;PMS_P2;Temp;Humidity;BMP_temperature;BMP_pressure;BME280_temperature;BME280_humidity;BME280_pressure;Samples;Min_cycle;Max_cycle;Signal;HPM_P1;HPM_P2
2021/01/23 00:02:18;;;;;;;24.97;10.20;;;;;;;3.53;100.00;98883.78;10449787;28;20640;-56
2021/01/23 00:07:18;;;;;;;17.97;10.20;;;;;;;3.52;100.00;98871.53;10434507;28;20185;-58
2021/01/23 00:12:19;;;;;;;18.43;10.90;;;;;;;3.48;100.00;98885.84;10446340;28;20216;-56
2021/01/23 00:17:19;;;;;;;19.53;12.00;;;;;;;3.38;100.00;98889.97;10451678;28;20272;-56
2021/01/23 00:22:20;;;;;;;20.20;11.73;;;;;;;3.26;100.00;98887.06;10449510;28;20168;-57
2021/01/23 00:27:20;;;;;;;23.20;12.67;;;;;;;3.17;100.00;98884.13;10440265;28;20175;-56
2021/01/23 00:32:21;;;;;;;24.43;13.03;;;;;;;3.06;100.00;98891.78;10438811;28;20201;-57
2021/01/23 00:37:21;;;;;;;21.80;13.07;;;;;;;2.95;100.00;98896.81;10449993;28;20172;-57
2021/01/23 00:42:21;;;;;;;31.33;14.53;;;;;;;2.87;100.00;98890.19;10450093;28;20199;-57
2021/01/23 00:47:22;;;;;;;29.13;15.10;;;;;;;2.76;100.00;98889.94;10446239;28;20233;-56
2021/01/23 00:52:22;;;;;;;30.27;14.50;;;;;;;2.69;100.00;98896.47;10433160;28;20796;-56
2021/01/23 00:57:23;;;;;;;32.23;15.33;;;;;;;2.67;100.00;98894.84;10445073;28;20775;-56
2021/01/23 01:02:23;;;;;;;25.33;13.47;;;;;;;2.56;100.00;98900.69;10449198;28;20510;-56
2021/01/23 01:07:24;;;;;;;23.97;14.23;;;;;;;2.50;100.00;98888.75;10449409;28;20168;-57
2021/01/23 01:12:24;;;;;;;29.97;14.33;;;;;;;2.48;100.00;98898.50;10437443;28;20738;-55
2021/01/23 01:17:24;;;;;;;29.60;15.40;;;;;;;2.49;100.00;98900.19;10437828;28;20172;-55
2021/01/23 01:22:26;;;;;;;33.87;15.30;;;;;;;2.50;100.00;98917.69;10452848;28;20171;-56
2021/01/23 01:27:26;;;;;;;28.73;14.60;;;;;;;2.36;100.00;98887.78;10454455;28;20180;-57
2021/01/23 01:32:27;;;;;;;26.80;14.67;;;;;;;2.32;100.00;98917.81;10453706;28;20195;-56
2021/01/23 01:37:27;;;;;;;25.83;14.30;;;;;;;2.24;100.00;98920.00;10454043;28;20186;-57
2021/01/23 01:42:27;;;;;;;27.87;14.90;;;;;;;2.22;100.00;98930.63;10454178;28;20164;-56
2021/01/23 01:47:28;;;;;;;26.73;14.30;;;;;;;2.24;100.00;98939.28;10445949;28;20692;-56
2021/01/23 01:52:29;;;;;;;40.13;16.90;;;;;;;2.23;100.00;98939.34;10432173;28;20235;-56
2021/01/23 01:57:29;;;;;;;31.17;15.10;;;;;;;2.20;100.00;98944.78;10442832;28;20183;-56
2021/01/23 02:02:48;;;;;;;30.03;15.70;;;;;;;2.15;100.00;98947.66;10447502;28;20567;-56
2021/01/23 02:08:08;;;;;;;22.60;14.50;;;;;;;2.07;100.00;98955.09;10447103;28;20629;-56
2021/01/23 02:13:17;;;;;;;28.00;15.63;;;;;;;1.96;100.00;98954.78;10432398;28;20233;-56
2021/01/23 02:18:20;;;;;;;29.03;15.47;;;;;;;1.85;100.00;98954.47;10438049;28;20184;-56
2021/01/23 02:23:24;;;;;;;27.07;15.00;;;;;;;1.77;100.00;98957.50;10445440;28;20240;-57
2021/01/23 02:28:49;;;;;;;28.13;14.57;;;;;;;1.69;100.00;98971.03;10446009;28;20183;-56
2021/01/23 02:33:50;;;;;;;25.63;15.70;;;;;;;1.60;100.00;98974.13;10438592;28;20747;-56
2021/01/23 02:38:51;;;;;;;30.07;15.00;;;;;;;1.57;100.00;98971.63;10431953;28;20187;-58
2021/01/23 02:43:52;;;;;;;25.37;15.17;;;;;;;1.51;100.00;98960.56;10446604;28;20528;-55
2021/01/23 02:48:52;;;;;;;29.97;16.57;;;;;;;1.45;100.00;98961.72;10446599;28;20556;-55
2021/01/23 02:53:59;;;;;;;25.87;14.80;;;;;;;1.41;100.00;98973.31;10444678;28;20204;-56
2021/01/23 02:59:03;;;;;;;26.20;14.47;;;;;;;1.37;100.00;98979.66;10428295;28;20568;-56
2021/01/23 03:04:04;;;;;;;27.70;15.23;;;;;;;1.35;100.00;98978.88;10440944;28;20246;-55
2021/01/23 03:09:19;;;;;;;30.23;16.47;;;;;;;1.33;100.00;98980.72;10444486;28;20471;-55
2021/01/23 03:14:20;;;;;;;30.80;16.43;;;;;;;1.27;100.00;98988.91;10448316;28;20175;-56
2021/01/23 03:19:22;;;;;;;34.10;17.07;;;;;;;1.21;100.00;98989.22;10443644;28;20187;-57
2021/01/23 03:24:23;;;;;;;34.33;17.90;;;;;;;1.17;100.00;98991.13;10441072;28;20172;-56
2021/01/23 03:29:23;;;;;;;32.90;18.13;;;;;;;1.10;100.00;98981.81;10452229;28;20200;-57
2021/01/23 03:34:24;;;;;;;28.27;16.50;;;;;;;1.06;100.00;98981.13;10452661;28;20168;-57
2021/01/23 03:39:25;;;;;;;30.40;17.67;;;;;;;1.03;100.00;98969.91;10450385;28;20190;-57
2021/01/23 03:44:25;;;;;;;37.90;20.23;;;;;;;1.06;100.00;98969.75;10435859;28;20176;-57
2021/01/23 03:49:25;;;;;;;31.20;17.97;;;;;;;1.04;100.00;98977.72;10447688;28;20968;-57
2021/01/23 03:54:26;;;;;;;32.83;18.80;;;;;;;1.00;100.00;98955.13;10452171;28;20191;-56
2021/01/23 03:59:26;;;;;;;32.17;18.27;;;;;;;0.98;100.00;98954.34;10451569;28;20178;-56
2021/01/23 04:04:27;;;;;;;32.13;17.47;;;;;;;0.98;100.00;98943.84;10441445;28;20171;-56
2021/01/23 04:09:27;;;;;;;39.07;17.47;;;;;;;0.97;100.00;98934.25;10440104;28;20659;-57
2021/01/23 04:14:28;;;;;;;35.13;18.60;;;;;;;0.96;100.00;98943.09;10451465;28;20191;-56
2021/01/23 04:19:28;;;;;;;34.23;19.60;;;;;;;0.95;100.00;98936.13;10451365;28;20549;-57
2021/01/23 04:24:30;;;;;;;36.17;18.97;;;;;;;0.95;100.00;98914.28;10448775;28;20562;-55
2021/01/23 04:29:30;;;;;;;36.03;19.43;;;;;;;0.88;100.00;98932.06;10434368;28;20246;-55
2021/01/23 04:34:31;;;;;;;42.20;22.87;;;;;;;0.87;100.00;98922.50;10446166;28;20192;-55
2021/01/23 04:39:31;;;;;;;37.00;19.00;;;;;;;1.06;100.00;98922.47;10449722;28;20180;-56
2021/01/23 04:44:32;;;;;;;29.87;16.70;;;;;;;1.30;100.00;98904.69;10432073;28;20216;-55
2021/01/23 04:49:34;;;;;;;29.70;17.57;;;;;;;1.50;100.00;98899.28;10438515;28;20293;-55
2021/01/23 04:54:34;;;;;;;31.57;19.10;;;;;;;1.60;100.00;98884.72;10437633;28;20218;-56
2021/01/23 04:59:35;;;;;;;33.07;19.20;;;;;;;1.71;100.00;98889.44;10449678;28;20174;-55
2021/01/23 05:05:01;;;;;;;32.97;17.53;;;;;;;1.79;100.00;98861.84;10448201;28;20553;-55
2021/01/23 05:10:19;;;;;;;38.53;21.60;;;;;;;1.89;100.00;98842.94;10444321;28;20540;-56
2021/01/23 05:15:29;;;;;;;31.00;17.43;;;;;;;1.91;100.00;98854.25;10413998;28;20245;-56
2021/01/23 05:20:45;;;;;;;28.60;17.93;;;;;;;1.93;100.00;98844.50;10446714;28;20258;-54
2021/01/23 05:25:51;;;;;;;30.17;16.50;;;;;;;1.95;100.00;98839.97;10448246;28;20281;-55
2021/01/23 05:30:52;;;;;;;26.53;15.87;;;;;;;1.97;100.00;98833.72;10447789;28;20318;-56
2021/01/23 05:36:09;;;;;;;30.33;17.13;;;;;;;1.99;100.00;98831.00;10431553;28;20255;-55
2021/01/23 05:41:11;;;;;;;31.30;16.43;;;;;;;2.02;100.00;98833.47;10442001;28;20664;-55
2021/01/23 05:46:25;;;;;;;31.47;17.90;;;;;;;2.08;100.00;98852.41;10447510;28;20332;-55
2021/01/23 05:51:26;;;;;;;29.10;16.33;;;;;;;2.15;100.00;98860.84;10446898;28;20231;-54
2021/01/23 05:56:26;;;;;;;29.73;17.93;;;;;;;2.32;100.00;98844.97;10438535;28;20638;-56
2021/01/23 06:01:27;;;;;;;34.70;17.67;;;;;;;2.46;100.00;98852.13;10434785;28;20184;-55
2021/01/23 06:06:44;;;;;;;31.07;17.77;;;;;;;2.44;100.00;98852.19;10445714;28;20271;-55
2021/01/23 06:11:45;;;;;;;30.10;17.03;;;;;;;2.53;100.00;98854.34;10447293;28;20290;-56
2021/01/23 06:16:46;;;;;;;35.43;19.87;;;;;;;2.55;100.00;98862.13;10445498;28;20821;-56
2021/01/23 06:21:46;;;;;;;28.77;17.53;;;;;;;2.53;100.00;98861.41;10430794;28;21129;-57
2021/01/23 06:26:53;;;;;;;32.30;17.00;;;;;;;2.59;100.00;98868.09;10442979;28;20168;-56
2021/01/23 06:31:55;;;;;;;29.80;16.90;;;;;;;2.62;100.00;98852.13;10447145;28;20220;-58
2021/01/23 06:37:20;;;;;;;30.90;17.60;;;;;;;2.62;100.00;98836.34;10446544;28;20210;-58
2021/01/23 06:42:21;;;;;;;33.70;19.73;;;;;;;2.62;100.00;98823.16;10434336;28;20191;-58
2021/01/23 06:47:22;;;;;;;30.93;18.43;;;;;;;2.67;100.00;98829.84;10437810;28;20215;-57
2021/01/23 06:52:22;;;;;;;33.67;19.73;;;;;;;2.71;100.00;98827.91;10453512;28;20318;-57
2021/01/23 06:57:23;;;;;;;30.83;17.83;;;;;;;2.75;100.00;98824.19;10467775;28;20202;-56
2021/01/23 07:02:25;;;;;;;29.30;17.30;;;;;;;2.81;100.00;98815.91;10487506;28;20203;-56
2021/01/23 07:07:26;;;;;;;28.60;17.07;;;;;;;2.89;100.00;98813.72;10478237;28;20186;-56
2021/01/23 07:12:43;;;;;;;26.43;16.83;;;;;;;3.00;100.00;98800.78;10492517;28;20195;-56
2021/01/23 07:17:44;;;;;;;31.13;17.70;;;;;;;3.05;100.00;98803.97;10494240;28;20716;-57
2021/01/23 07:22:46;;;;;;;27.33;16.70;;;;;;;3.11;100.00;98810.69;10494341;28;20174;-56
2021/01/23 07:27:47;;;;;;;31.50;17.70;;;;;;;3.20;100.00;98803.09;10480349;28;20279;-56
2021/01/23 07:32:48;;;;;;;27.33;16.17;;;;;;;3.28;100.00;98799.16;10483409;28;20574;-55
2021/01/23 07:37:53;;;;;;;27.47;16.63;;;;;;;3.37;100.00;98777.53;10473948;28;20190;-55
2021/01/23 07:42:57;;;;;;;24.93;15.77;;;;;;;3.46;100.00;98782.25;10457705;28;20164;-57
2021/01/23 07:47:59;;;;;;;27.27;15.87;;;;;;;3.53;100.00;98765.09;10486506;28;20233;-56
2021/01/23 07:53:12;;;;;;;26.23;15.77;;;;;;;3.58;100.00;98744.59;10419119;28;20231;-56
2021/01/23 07:58:13;;;;;;;26.13;14.37;;;;;;;3.67;100.00;98733.47;10410298;28;21076;-56
2021/01/23 08:03:14;;;;;;;26.53;16.10;;;;;;;3.70;100.00;98751.75;10409990;28;20176;-57
2021/01/23 08:08:34;;;;;;;29.40;15.37;;;;;;;3.80;100.00;98742.34;10415864;28;20303;-57
2021/01/23 08:13:35;;;;;;;32.10;15.20;;;;;;;3.90;100.00;98739.97;10414469;28;20208;-58
2021/01/23 08:18:36;;;;;;;26.10;15.50;;;;;;;3.93;100.00;98724.78;10423456;28;20177;-59
2021/01/23 08:23:36;;;;;;;34.33;16.43;;;;;;;3.94;100.00;98718.56;10450101;28;20166;-57
2021/01/23 08:28:44;;;;;;;31.80;17.47;;;;;;;4.07;100.00;98707.25;10448650;28;20283;-61
2021/01/23 08:33:54;;;;;;;26.17;15.90;;;;;;;4.11;100.00;98706.09;10439978;28;20214;-56
2021/01/23 08:39:05;;;;;;;25.53;16.10;;;;;;;4.16;100.00;98693.44;10439992;28;20181;-58
2021/01/23 08:44:06;;;;;;;37.97;23.97;;;;;;;4.22;100.00;98699.22;10449909;28;20269;-63
2021/01/23 08:49:06;;;;;;;29.30;17.03;;;;;;;4.29;100.00;98699.63;10437237;28;20242;-59
2021/01/23 08:54:08;;;;;;;56.47;28.20;;;;;;;4.34;100.00;98687.84;10394647;28;20357;-60
2021/01/23 08:59:09;;;;;;;32.20;20.63;;;;;;;4.40;100.00;98699.78;10393137;28;20350;-58
2021/01/23 09:04:09;;;;;;;25.50;17.67;;;;;;;4.51;100.00;98699.94;10408465;28;20182;-57
2021/01/23 09:09:10;;;;;;;31.57;19.77;;;;;;;4.69;100.00;98704.03;10448123;28;20189;-58
2021/01/23 09:14:11;;;;;;;23.07;14.20;;;;;;;4.81;100.00;98702.38;10446502;28;20197;-58
2021/01/23 09:19:12;;;;;;;29.43;16.10;;;;;;;4.88;100.00;98686.94;10435655;28;20647;-58
2021/01/23 09:24:13;;;;;;;36.03;17.97;;;;;;;4.92;100.00;98683.16;10437194;28;20262;-57
2021/01/23 09:29:14;;;;;;;23.60;14.20;;;;;;;4.97;100.00;98683.66;10448327;28;20234;-58
2021/01/23 09:34:14;;;;;;;29.73;18.77;;;;;;;5.01;100.00;98687.81;10448158;28;20210;-58
2021/01/23 09:39:15;;;;;;;30.80;19.13;;;;;;;5.06;100.00;98675.13;10445042;28;20178;-59
2021/01/23 09:44:15;;;;;;;33.47;22.13;;;;;;;5.08;100.00;98660.84;10432099;28;20205;-59
2021/01/23 09:49:16;;;;;;;29.10;16.73;;;;;;;5.12;100.00;98658.00;10443990;28;20259;-58
2021/01/23 09:54:16;;;;;;;31.83;18.37;;;;;;;5.17;100.00;98666.47;10448011;28;20221;-58
2021/01/23 09:59:17;;;;;;;21.70;14.23;;;;;;;5.20;100.00;98656.50;10447063;28;20273;-58
2021/01/23 10:04:17;;;;;;;22.50;14.83;;;;;;;5.25;100.00;98672.91;10435694;28;20247;-58
2021/01/23 10:09:18;;;;;;;22.10;15.63;;;;;;;5.29;100.00;98657.69;10436778;28;20205;-58
2021/01/23 10:14:18;;;;;;;21.93;15.10;;;;;;;5.32;100.00;98650.38;10446806;28;20179;-58
2021/01/23 10:19:19;;;;;;;27.80;17.17;;;;;;;5.34;100.00;98664.34;10447425;28;20180;-58
2021/01/23 10:24:19;;;;;;;54.67;22.90;;;;;;;5.37;100.00;98672.06;10448034;28;20163;-58
2021/01/23 10:29:20;;;;;;;33.20;20.57;;;;;;;5.43;100.00;98654.94;10439224;28;20186;-58
2021/01/23 10:34:20;;;;;;;55.17;23.67;;;;;;;5.49;100.00;98656.28;10452535;28;20182;-58
2021/01/23 10:39:21;;;;;;;52.50;21.13;;;;;;;5.54;100.00;98648.88;10454564;28;20221;-58
2021/01/23 10:44:23;;;;;;;53.00;34.80;;;;;;;5.62;100.00;98643.88;10454997;28;20176;-58
2021/01/23 10:49:23;;;;;;;69.97;25.47;;;;;;;5.67;100.00;98644.44;10441993;28;20222;-58
2021/01/23 10:54:23;;;;;;;28.20;17.10;;;;;;;5.70;100.00;98633.59;10445544;28;21031;-58
2021/01/23 10:59:24;;;;;;;25.07;17.97;;;;;;;5.72;100.00;98632.53;10453764;28;20191;-58
2021/01/23 11:04:25;;;;;;;19.83;14.23;;;;;;;5.70;100.00;98676.78;10435807;28;20187;-58
2021/01/23 11:09:25;;;;;;;22.37;14.23;;;;;;;5.76;100.00;98664.94;10449284;28;20178;-58
2021/01/23 11:14:26;;;;;;;21.23;14.23;;;;;;;5.86;100.00;98660.66;10438136;28;20647;-58
2021/01/23 11:19:27;;;;;;;20.93;13.63;;;;;;;5.89;100.00;98647.25;10451540;28;20710;-58
2021/01/23 11:24:29;;;;;;;21.17;13.87;;;;;;;5.90;100.00;98635.72;10453581;28;20187;-58
2021/01/23 11:29:29;;;;;;;18.10;13.13;;;;;;;5.92;100.00;98631.13;10452645;28;20202;-58
2021/01/23 11:34:29;;;;;;;21.20;13.10;;;;;;;5.88;100.00;98624.38;10438572;28;20179;-58
2021/01/23 11:39:30;;;;;;;21.33;12.63;;;;;;;5.81;100.00;98617.78;10443911;28;20179;-58
2021/01/23 11:44:30;;;;;;;16.47;12.07;;;;;;;5.77;100.00;98598.66;10452098;28;20618;-58
2021/01/23 11:49:31;;;;;;;19.77;13.17;;;;;;;5.73;100.00;98585.75;10452301;28;20226;-58
2021/01/23 11:54:32;;;;;;;18.03;12.33;;;;;;;5.70;100.00;98575.38;10443914;28;20286;-57
2021/01/23 11:59:33;;;;;;;20.23;12.83;;;;;;;5.66;100.00;98573.94;10435482;28;20214;-59
2021/01/23 12:04:33;;;;;;;22.23;15.53;;;;;;;5.64;100.00;98539.66;10450340;28;20172;-57
2021/01/23 12:09:33;;;;;;;32.83;15.70;;;;;;;5.60;100.00;98563.78;10451404;28;20557;-58
2021/01/23 12:14:34;;;;;;;19.90;13.87;;;;;;;5.57;100.00;98542.81;10450780;28;20194;-58
2021/01/23 12:19:35;;;;;;;59.73;24.67;;;;;;;5.57;100.00;98542.81;10437325;28;20240;-58
2021/01/23 12:24:36;;;;;;;36.07;16.43;;;;;;;5.58;100.00;98533.94;10442653;28;20982;-58
2021/01/23 12:29:36;;;;;;;23.03;14.30;;;;;;;5.58;100.00;98539.22;10450387;28;20672;-58
2021/01/23 12:34:37;;;;;;;26.03;15.23;;;;;;;5.57;100.00;98514.56;10450771;28;20189;-57
2021/01/23 12:39:37;;;;;;;46.93;24.13;;;;;;;5.58;100.00;98483.66;10444207;28;21034;-57
2021/01/23 12:44:38;;;;;;;21.40;14.00;;;;;;;5.59;100.00;98477.44;10435943;28;20257;-58
2021/01/23 12:49:38;;;;;;;27.70;15.43;;;;;;;5.56;100.00;98472.34;10430187;28;20285;-58
2021/01/23 12:54:40;;;;;;;18.97;12.20;;;;;;;5.59;100.00;98472.97;10448906;28;20236;-57
2021/01/23 12:59:40;;;;;;;24.10;12.90;;;;;;;5.66;100.00;98470.75;10448966;28;20189;-59
2021/01/23 13:04:41;;;;;;;19.73;11.57;;;;;;;5.70;100.00;98469.53;10416279;28;20257;-58
2021/01/23 13:09:41;;;;;;;18.43;11.27;;;;;;;5.73;100.00;98472.81;10441351;28;20189;-58
2021/01/23 13:14:41;;;;;;;19.97;12.50;;;;;;;5.79;100.00;98474.19;10449290;28;20229;-58
2021/01/23 13:19:45;;;;;;;18.07;11.77;;;;;;;5.86;100.00;98470.09;10431512;28;20175;-59
2021/01/23 13:24:45;;;;;;;17.13;11.47;;;;;;;5.89;100.00;98448.75;10441407;28;20184;-59
2021/01/23 13:29:46;;;;;;;20.20;12.67;;;;;;;5.90;100.00;98434.56;10415697;28;20250;-58
2021/01/23 13:34:46;;;;;;;24.63;14.93;;;;;;;5.87;100.00;98439.19;10447962;28;20170;-58
2021/01/23 13:39:48;;;;;;;29.93;14.37;;;;;;;5.82;100.00;98462.50;10448057;28;20271;-58
2021/01/23 13:44:49;;;;;;;49.80;17.93;;;;;;;5.81;100.00;98469.59;10447910;28;20179;-57
2021/01/23 13:49:49;;;;;;;40.40;19.03;;;;;;;5.83;100.00;98458.88;10453508;28;20634;-58
2021/01/23 13:54:50;;;;;;;37.07;16.80;;;;;;;5.84;100.00;98455.28;10453706;28;20624;-58
2021/01/23 13:59:51;;;;;;;29.33;15.37;;;;;;;5.88;100.00;98452.34;10434498;28;20180;-58
2021/01/23 14:04:51;;;;;;;29.73;14.63;;;;;;;5.92;100.00;98440.53;10450544;28;20218;-57
2021/01/23 14:09:52;;;;;;;35.70;16.57;;;;;;;5.94;100.00;98446.56;10391076;28;20307;-59
2021/01/23 14:14:54;;;;;;;16.37;11.07;;;;;;;5.88;100.00;98457.63;10404904;28;20311;-64
2021/01/23 14:19:55;;;;;;;17.77;10.53;;;;;;;5.83;100.00;98454.44;10401494;28;20833;-58
2021/01/23 14:24:56;;;;;;;16.77;10.13;;;;;;;5.83;100.00;98454.44;10399500;28;20188;-58
2021/01/23 14:29:56;;;;;;;15.83;9.87;;;;;;;5.84;100.00;98450.84;10376335;28;20330;-57
2021/01/23 14:34:57;;;;;;;13.20;8.60;;;;;;;5.87;100.00;98445.31;10386906;28;20184;-58
2021/01/23 14:39:58;;;;;;;15.30;9.93;;;;;;;5.85;99.96;98441.94;10382711;28;20981;-61
2021/01/23 14:44:59;;;;;;;17.10;9.50;;;;;;;5.74;99.71;98447.19;10386879;28;20277;-59
2021/01/23 14:50:00;;;;;;;17.67;10.60;;;;;;;5.71;99.66;98439.47;10395172;28;20223;-59
2021/01/23 14:55:00;;;;;;;16.57;10.00;;;;;;;5.69;99.70;98450.16;10393543;28;20570;-58
2021/01/23 15:00:01;;;;;;;19.70;11.23;;;;;;;5.70;99.98;98453.66;10371640;28;20187;-57
2021/01/23 15:05:01;;;;;;;25.13;11.90;;;;;;;5.70;99.87;98453.66;10395058;28;20179;-57
2021/01/23 15:10:03;;;;;;;18.47;10.57;;;;;;;5.70;99.40;98454.50;10387769;28;20218;-61
2021/01/23 15:15:06;;;;;;;15.90;10.50;;;;;;;5.69;99.28;98441.38;10384007;28;20857;-58
2021/01/23 15:20:07;;;;;;;21.13;12.50;;;;;;;5.70;99.14;98443.06;10365261;28;20192;-59
2021/01/23 15:25:08;;;;;;;20.30;11.57;;;;;;;5.69;99.17;98451.97;10382809;28;20191;-63
2021/01/23 15:30:13;;;;;;;19.33;12.20;;;;;;;5.68;99.33;98455.56;10382404;28;20208;-59
2021/01/23 15:35:18;;;;;;;19.63;12.20;;;;;;;5.71;98.76;98460.66;10399898;28;20191;-59
2021/01/23 15:40:20;;;;;;;21.23;12.20;;;;;;;5.63;98.74;98453.28;10397146;28;20963;-63
2021/01/23 15:45:21;;;;;;;16.07;10.30;;;;;;;5.54;99.02;98448.69;10376290;28;20192;-60
2021/01/23 15:50:22;;;;;;;35.70;25.60;;;;;;;5.47;98.70;98452.72;10423501;28;20249;-57
2021/01/23 15:55:25;;;;;;;28.60;15.27;;;;;;;5.39;98.78;98453.28;10458387;28;20614;-65
2021/01/23 16:00:25;;;;;;;23.23;11.73;;;;;;;5.35;98.83;98462.38;10449291;28;20572;-58
2021/01/23 16:05:26;;;;;;;16.83;11.00;;;;;;;5.39;99.22;98448.00;10435378;28;20188;-58
2021/01/23 16:10:26;;;;;;;18.93;12.53;;;;;;;5.46;98.99;98455.47;10446534;28;20698;-62
2021/01/23 16:15:27;;;;;;;19.83;11.57;;;;;;;5.55;98.50;98455.66;10450887;28;20174;-61
2021/01/23 16:20:33;;;;;;;23.57;12.13;;;;;;;5.62;98.35;98445.47;10446084;28;20183;-64
2021/01/23 16:25:35;;;;;;;21.57;11.87;;;;;;;5.59;97.82;98443.03;10439236;28;20183;-60
2021/01/23 16:30:35;;;;;;;25.70;13.20;;;;;;;5.48;97.95;98432.41;10420475;28;20571;-63
2021/01/23 16:35:43;;;;;;;19.40;11.87;;;;;;;5.33;97.95;98435.22;10449662;28;20179;-65
2021/01/23 17:18:26;;;;;;;19.03;11.63;;;;;;;5.06;98.24;98447.81;10586333;27;20959;-61
2021/01/23 17:23:27;;;;;;;21.50;11.67;;;;;;;5.09;99.22;98463.41;10607800;28;20195;-62
2021/01/23 17:28:28;;;;;;;23.20;12.70;;;;;;;5.19;99.88;98440.69;10608397;27;20173;-60
2021/01/23 17:33:29;;;;;;;19.70;11.60;;;;;;;5.18;100.00;98436.34;10556894;27;20193;-58
2021/01/23 17:38:29;;;;;;;18.37;12.13;;;;;;;5.20;100.00;98455.56;10556834;28;20523;-61
2021/01/23 17:43:30;;;;;;;19.13;11.07;;;;;;;5.16;99.90;98464.69;10565709;28;20183;-58
2021/01/23 17:48:30;;;;;;;23.20;13.70;;;;;;;5.26;99.77;98449.00;10565351;28;20177;-60
2021/01/23 17:53:31;;;;;;;22.77;11.67;;;;;;;5.14;99.25;98440.16;10560892;28;20191;-62
2021/01/23 17:58:33;;;;;;;25.17;12.23;;;;;;;5.04;99.61;98458.47;10569115;28;20259;-61
2021/01/23 18:03:34;;;;;;;20.80;12.63;;;;;;;5.06;99.66;98463.66;10605693;27;20177;-57
2021/01/23 18:08:35;;;;;;;22.63;12.50;;;;;;;5.06;99.61;98447.81;10607911;27;20279;-62
2021/01/23 18:13:35;;;;;;;26.93;14.20;;;;;;;5.11;99.63;98450.94;10605098;28;20742;-62
2021/01/23 18:18:36;;;;;;;24.43;14.00;;;;;;;5.07;99.54;98460.06;10592689;27;20551;-60
2021/01/23 18:23:38;;;;;;;21.73;14.43;;;;;;;4.99;99.45;98462.38;10596866;27;20201;-62
2021/01/23 18:28:39;;;;;;;23.17;14.37;;;;;;;4.80;99.68;98457.56;10583932;27;20182;-63
2021/01/23 18:33:40;;;;;;;25.10;14.83;;;;;;;4.78;100.00;98463.91;10550160;28;20234;-60
2021/01/23 18:38:41;;;;;;;23.70;13.93;;;;;;;4.77;100.00;98459.59;10530555;28;20259;-59
2021/01/23 18:43:41;;;;;;;25.93;13.13;;;;;;;4.79;100.00;98465.59;10549516;28;20180;-62
2021/01/23 18:48:42;;;;;;;23.43;13.47;;;;;;;4.74;100.00;98462.44;10574653;28;20197;-59
2021/01/23 18:53:42;;;;;;;29.07;14.60;;;;;;;4.73;100.00;98451.03;10575939;28;20203;-64
2021/01/23 18:58:43;;;;;;;32.57;16.83;;;;;;;4.78;100.00;98470.03;10575258;28;20272;-59
2021/01/23 19:03:43;;;;;;;26.50;15.10;;;;;;;4.68;99.89;98469.84;10561599;28;20184;-64
2021/01/23 19:08:44;;;;;;;24.33;14.70;;;;;;;4.56;100.00;98491.84;10568413;28;20172;-63
2021/01/23 19:13:44;;;;;;;30.53;16.00;;;;;;;4.47;100.00;98487.16;10575506;28;20753;-64
2021/01/23 19:18:45;;;;;;;26.93;15.23;;;;;;;4.45;100.00;98499.66;10576197;28;20180;-65
2021/01/23 19:23:45;;;;;;;26.33;14.77;;;;;;;4.44;100.00;98497.97;10569707;28;20180;-64
2021/01/23 19:28:46;;;;;;;24.57;14.47;;;;;;;4.43;100.00;98479.56;10561727;28;20541;-62
2021/01/23 19:33:46;;;;;;;36.00;17.47;;;;;;;4.45;100.00;98504.94;10573527;28;20204;-64
2021/01/23 19:38:46;;;;;;;28.93;17.03;;;;;;;4.44;100.00;98520.88;10574972;28;20177;-61
2021/01/23 19:43:48;;;;;;;27.77;15.83;;;;;;;4.38;100.00;98513.34;10575349;28;20192;-61
2021/01/23 19:48:48;;;;;;;30.50;16.33;;;;;;;4.44;100.00;98516.44;10562241;28;20177;-58
2021/01/23 19:53:48;;;;;;;27.07;15.90;;;;;;;4.32;100.00;98514.63;10566183;28;20703;-65
2021/01/23 19:58:49;;;;;;;25.03;15.13;;;;;;;4.22;100.00;98514.41;10573897;28;20258;-63
2021/01/23 20:03:51;;;;;;;26.73;15.53;;;;;;;4.15;100.00;98522.81;10574649;28;20262;-64
2021/01/23 20:08:52;;;;;;;28.87;15.60;;;;;;;4.09;100.00;98524.09;10566490;28;20181;-59
2021/01/23 20:13:52;;;;;;;33.93;16.07;;;;;;;4.06;100.00;98541.94;10558460;28;20231;-64
2021/01/23 20:18:53;;;;;;;24.83;15.83;;;;;;;4.04;100.00;98564.94;10573357;28;20229;-58
2021/01/23 20:23:53;;;;;;;26.83;15.53;;;;;;;4.06;100.00;98573.59;10572599;28;20187;-63
2021/01/23 20:28:54;;;;;;;25.90;15.63;;;;;;;4.08;100.00;98579.63;10573920;28;20304;-61
2021/01/23 20:33:55;;;;;;;31.10;17.63;;;;;;;4.12;100.00;98570.53;10556028;28;20210;-61
2021/01/23 20:38:56;;;;;;;40.60;18.23;;;;;;;4.19;100.00;98577.13;10567275;28;20176;-62
2021/01/23 20:43:57;;;;;;;39.50;19.60;;;;;;;4.23;100.00;98578.59;10573199;28;20188;-57
2021/01/23 20:48:57;;;;;;;38.97;21.33;;;;;;;4.25;100.00;98572.25;10572563;28;20176;-63
2021/01/23 20:53:58;;;;;;;40.83;21.87;;;;;;;4.32;100.00;98567.44;10564583;28;20559;-61
2021/01/23 20:58:58;;;;;;;35.27;20.20;;;;;;;4.37;100.00;98583.81;10559379;28;20201;-62
2021/01/23 21:03:59;;;;;;;37.43;19.73;;;;;;;4.39;100.00;98592.47;10572468;28;20195;-62
2021/01/23 21:08:59;;;;;;;32.43;18.70;;;;;;;4.44;100.00;98586.91;10572762;28;20181;-62
2021/01/23 21:14:00;;;;;;;40.57;20.53;;;;;;;4.46;100.00;98593.78;10572205;28;20685;-61
2021/01/23 21:19:02;;;;;;;38.30;17.00;;;;;;;4.45;100.00;98605.28;10556377;28;20726;-63
2021/01/23 21:24:06;;;;;;;34.80;18.07;;;;;;;4.42;100.00;98637.16;10565653;28;20625;-60
2021/01/23 21:29:07;;;;;;;38.57;18.53;;;;;;;4.32;100.00;98622.88;10571566;28;20284;-57
2021/01/23 21:34:07;;;;;;;32.50;16.67;;;;;;;4.13;100.00;98641.69;10572199;28;20261;-64
2021/01/23 21:39:08;;;;;;;18.93;10.13;;;;;;;3.90;100.00;98631.78;10562421;28;20172;-62
2021/01/23 21:44:09;;;;;;;22.20;13.33;;;;;;;3.87;99.05;98651.28;10563499;28;20195;-61
2021/01/23 21:49:09;;;;;;;11.07;7.03;;;;;;;3.56;97.41;98646.25;10574340;28;20215;-60
2021/01/23 21:54:09;;;;;;;12.93;7.70;;;;;;;3.30;97.80;98671.59;10550310;28;20215;-60
2021/01/23 21:59:10;;;;;;;12.27;7.07;;;;;;;3.03;96.88;98674.09;10547194;28;20198;-60
2021/01/23 22:04:10;;;;;;;11.03;7.20;;;;;;;2.75;95.49;98676.69;10580901;28;20624;-60
2021/01/23 22:09:11;;;;;;;6.87;5.17;;;;;;;2.63;96.13;98677.41;10585085;28;20210;-59
2021/01/23 22:14:11;;;;;;;11.27;6.13;;;;;;;2.50;95.93;98687.81;10543661;28;20229;-61
2021/01/23 22:19:12;;;;;;;7.97;5.60;;;;;;;2.40;95.01;98690.13;10543419;28;20197;-62
2021/01/23 22:24:13;;;;;;;8.37;5.47;;;;;;;2.33;95.85;98685.28;10553442;28;20187;-61
2021/01/23 22:29:13;;;;;;;7.73;5.63;;;;;;;2.23;96.40;98670.94;10539942;28;20178;-63
2021/01/23 22:34:14;;;;;;;8.43;6.23;;;;;;;2.22;95.70;98703.47;10541047;28;20198;-63
2021/01/23 22:39:14;;;;;;;11.57;6.77;;;;;;;2.20;96.44;98697.44;10541951;28;20169;-63
2021/01/23 22:44:15;;;;;;;11.03;6.37;;;;;;;2.22;95.88;98691.16;10542039;28;20211;-61
2021/01/23 22:49:15;;;;;;;10.93;6.47;;;;;;;2.22;96.25;98690.31;10541239;28;20496;-63
2021/01/23 22:54:16;;;;;;;8.87;5.77;;;;;;;2.17;95.96;98698.47;10540969;28;20704;-62
2021/01/23 22:59:17;;;;;;;12.43;7.30;;;;;;;2.14;96.20;98696.00;10558655;28;20209;-64
2021/01/23 23:04:17;;;;;;;8.67;6.27;;;;;;;2.11;96.72;98698.81;10583180;28;20174;-63
2021/01/23 23:09:18;;;;;;;10.20;6.73;;;;;;;2.08;96.96;98688.44;10582791;28;20503;-62
2021/01/23 23:14:18;;;;;;;9.50;6.47;;;;;;;2.10;97.18;98683.94;10581236;28;20237;-61
2021/01/23 23:19:19;;;;;;;9.63;5.93;;;;;;;2.04;96.75;98671.16;10582031;28;20631;-62
2021/01/23 23:24:21;;;;;;;8.90;5.83;;;;;;;1.98;97.60;98655.69;10582481;28;20186;-62
2021/01/23 23:29:21;;;;;;;8.73;6.13;;;;;;;1.89;97.77;98657.06;10581522;28;20162;-62
2021/01/23 23:34:21;;;;;;;10.27;6.80;;;;;;;1.84;97.42;98659.09;10582341;28;20209;-62